We Are Winnipeg.

Screenshot by Matthias Klassen

Come explore the heart of Canada. 

  Top Controllers this Month

Varun 1403363
02:28

Tavis Harrison 1444863
01:50

Ryan Mayberry 1614943
01:46

  Online Controllers

No controllers online.

  Weather

CYWG - Winnipeg / James Armstrong Richardson International Airport   VFR
CYWG 011200Z 11010KT 15SM OVC082 M15/M18 A3007 RMK AC8 PRESFR SLP209

CYXE - Saskatoon John G. Diefenbaker International Airport   MVFR
CYXE 011229Z 02016KT 12SM -SN BKN026 OVC050 M21/M24 A2975 RMK SC6SC2 SLP129

CYQT - Thunder Bay Airport   VFR
CYQT 011200Z 25008KT 15SM BKN170 M11/M14 A3022 RMK AC5 SLP253

CYQR - Regina International Airport   VFR
CYQR 011200Z 14015KT 6SM -SN DRSN BKN054 M12/M15 A2967 RMK SC7 SLP098

CYMJ - Moose Jaw Air Vice Marshal C. M. McEwen Airport   VFR
CYMJ 011200Z 12007KT 10SM -SN OVC050 M10/M12 A2965 RMK SC8 PCPN VRY LGT SLP087

CYPG - Portage-la-Prairie / Southport Airport   VFR
CYPG 011200Z 11010G16KT 12SM -SN BKN085 OVC100 M15/M18 A3004 RMK AC7AC1 FST OBS SLP200